ADDS METAR Data INFO
IDs: Format: Raw Decoded Include TAF

Data at: 0213 UTC 17 Aug 2018

PAKV 170153Z AUTO 23011KT 10SM FEW043 16/08 A2991 RMK AO2 SLP129 T01560083 TSNO
PAKV 170053Z AUTO 24011KT 10SM FEW048 16/07 A2991 RMK SLP129 T01560072 TSNO VIA AUTODIAL
PAKV 162353Z AUTO 23011G17KT 10SM OVC048 15/08 A2991 RMK AO2 SLP130 T01500078 10156 20089 56003 TSNO
PAKV 162253Z AUTO 23012KT 10SM FEW044 15/08 A2991 RMK AO2 SLP131 T01500083 TSNO
PAKV 162153Z AUTO 23008KT 10SM FEW040 16/08 A2991 RMK AO2 SLP131 T01560083 TSNO
PAKV 162053Z AUTO 21007KT 10SM CLR 14/09 A2992 RMK AO2 SLP133 T01390094 58004 TSNO
PAKV 161953Z AUTO 00000KT 10SM FEW100 12/09 A2993 RMK AO2 SLP136 T01170089 TSNO
PAKV 161853Z AUTO 22004KT 10SM CLR 11/08 A2993 RMK SLP136 T01060083 TSNO VIA AUTODIAL
PAKV 161753Z AUTO 00000KT 10SM CLR 09/08 A2993 RMK SLP137 T00890078 10089 20067 50000 TSNO VIA AUTODIAL
PAKV 161653Z AUTO 00000KT 10SM CLR 08/07 A2993 RMK SLP139 T00780072 TSNO VIA AUTODIAL
PAKV 161553Z AUTO 00000KT 10SM BKN120 08/07 A2993 RMK SLP137 T00780072 TSNO VIA AUTODIAL
PAKV 161453Z AUTO 22003KT 10SM FEW100 08/07 A2993 RMK AO2 SLP137 T00780067 58006 TSNO
PAKV 161353Z AUTO 00000KT 10SM FEW100 07/07 A2994 RMK AO2 SLP139 T00720072 TSNO
PAKV 161253Z AUTO 23003KT 10SM OVC110 08/08 A2995 RMK SLP143 T00830078 TSNO VIA AUTODIAL
PAKV 161153Z AUTO 00000KT 10SM BKN090 OVC120 09/08 A2995 RMK AO2 SLP144 T00890083 10133 20089 51001 TSNO
PAKV 161053Z AUTO 23003KT 10SM SCT070 OVC100 09/08 A2995 RMK AO2 SLP144 T00940083 TSNO
PAKV 160953Z AUTO 00000KT 10SM SCT110 10/09 A2995 RMK AO2 SLP144 T01000089 TSNO
PAKV 160853Z AUTO 00000KT 10SM FEW050 BKN065 11/09 A2995 RMK AO2 SLP143 T01060089 401560089 52005 TSNO
PAKV 160753Z AUTO 00000KT 10SM BKN050 OVC060 12/10 A2994 RMK SLP141 T01170100 TSNO VIA AUTODIAL
PAKV 160653Z AUTO 00000KT 10SM BKN047 OVC070 12/11 A2994 RMK AO2 SLP139 T01220111 TSNO
PAKV 160637Z AUTO 00000KT 2SM BR BKN045 OVC055 12/11 A2994 RMK AO2 T01220111 TSNO
PAKV 160553Z AUTO 00000KT 10SM OVC060 13/12 A2993 RMK AO2 SLP137 60000 T01330117 10156 20133 53002 TSNO
PAKV 160453Z AUTO 00000KT 10SM OVC065 14/11 A2993 RMK SLP135 T01440111 TSNO VIA AUTODIAL
PAKV 160353Z AUTO 00000KT 10SM OVC065 14/11 A2993 RMK SLP135 T01440111 TSNO VIA AUTODIAL
PAKV 160253Z AUTO 00000KT 10SM OVC070 15/09 A2993 RMK AO2 RAE0155B22E33 SLP136 P0000 60000 T01500094 58005 TSNO
PAKV 160153Z AUTO 00000KT 10SM -RA OVC065 14/09 A2993 RMK AO2 RAB07E16B38 SLP138 P0000 T01440094 TSNO
PAKV 160053Z AUTO 02005KT 10SM FEW034 BKN060 OVC075 15/11 A2994 RMK AO2 SLP139 T01500106 TSNO
PAKV 152353Z AUTO 00000KT 10SM FEW037 BKN070 14/09 A2994 RMK AO2 SLP140 60000 T01440094 10150 20106 50000 TSNO
PAKV 152253Z AUTO 00000KT 10SM FEW023 BKN034 OVC065 14/10 A2994 RMK AO2 SLP142 T01440100 TSNO
PAKV 152205Z AUTO 27003KT 10SM SCT026 OVC060 14/10 A2995 RMK AO2 T01390100 TSNO
PAKV 152153Z AUTO 27005KT 10SM BKN025 OVC060 14/11 A2995 RMK AO2 RAE26 SLP143 P0000 T01390106 TSNO
PAKV 152141Z AUTO 28004KT 10SM BKN025 BKN037 OVC055 14/11 A2994 RMK AO2 RAE26 P0000 T01390106 TSNO
PAKV 152131Z AUTO 28004KT 10SM SCT023 BKN038 OVC055 13/10 A2994 RMK AO2 RAE26 P0000 T01330100 TSNO
PAKV 152053Z AUTO 11003KT 10SM -RA BKN022 BKN033 OVC041 13/09 A2994 RMK AO2 RAB53 SLP141 P0000 60000 T01330094 51004 TSNO
PAKV 152043Z AUTO 00000KT 10SM SCT019 BKN026 OVC045 14/10 A2994 RMK AO2 T01390100 TSNO
PAKV 151953Z AUTO 00000KT 10SM OVC060 14/11 A2994 RMK AO2 SLP140 T01440106 TSNO
PAKV 151853Z AUTO 24003KT 10SM OVC055 12/10 A2994 RMK AO2 SLP139 T01170100 TSNO
PAKV 151753Z AUTO 23003KT 10SM OVC055 10/09 A2993 RMK AO2 SLP137 T01000089 10100 20089 51010 TSNO
PAKV 151653Z AUTO 21003KT 10SM OVC055 09/09 A2992 RMK AO2 SLP134 T00940089 TSNO
PAKV 151553Z AUTO 21004KT 10SM OVC055 09/08 A2991 RMK AO2 SLP129 T00890083 TSNO
PAKV 151453Z AUTO 00000KT 10SM OVC055 09/09 A2990 RMK AO2 SLP127 T00890089 51006 TSNO